Time;durP1;ratioP1;P1;durP2;ratioP2;P2;SDS_P1;SDS_P2;PMS_P1;PMS_P2;Temp;Humidity;BMP_temperature;BMP_pressure;BME280_temperature;BME280_humidity;BME280_pressure;Samples;Min_cycle;Max_cycle;Signal;HPM_P1;HPM_P2
2021/08/28 00:02:23;;;;;;;;;2.25;2.00;;;;;17.28;58.06;101983.53;4923858;28;46177;-81
2021/08/28 00:04:49;;;;;;;;;2.75;1.00;;;;;17.29;57.95;101982.59;4924591;28;45227;-81
2021/08/28 00:07:14;;;;;;;;;1.75;1.75;;;;;17.32;58.40;101991.31;4923676;28;45228;-80
2021/08/28 00:09:40;;;;;;;;;2.50;1.50;;;;;17.30;58.49;101993.16;4924094;28;45344;-80
2021/08/28 00:12:05;;;;;;;;;1.25;1.00;;;;;17.20;58.46;101983.84;4923918;28;46302;-80
2021/08/28 00:14:31;;;;;;;;;2.25;2.25;;;;;17.15;58.72;101985.78;4924497;28;45541;-80
2021/08/28 00:16:56;;;;;;;;;2.50;2.00;;;;;17.15;59.04;101985.78;4923988;28;45429;-80
2021/08/28 00:19:21;;;;;;;;;1.25;1.00;;;;;17.13;58.75;101995.63;4924255;28;45251;-79
2021/08/28 00:21:47;;;;;;;;;3.50;2.75;;;;;17.07;59.28;101984.31;4923801;28;45360;-79
2021/08/28 00:24:12;;;;;;;;;1.00;1.00;;;;;17.09;59.34;101984.22;4923394;28;45262;-80
2021/08/28 00:26:39;;;;;;;;;3.00;2.00;;;;;17.04;59.71;101988.91;4923960;28;45813;-79
2021/08/28 00:29:05;;;;;;;;;3.50;3.00;;;;;16.96;59.55;101987.38;4906954;28;47141;-79
2021/08/28 00:31:30;;;;;;;;;2.25;2.25;;;;;16.92;60.02;101983.13;4906679;28;47100;-79
2021/08/28 00:33:56;;;;;;;;;2.25;1.75;;;;;16.91;61.14;101989.38;4923607;28;45260;-80
2021/08/28 00:36:21;;;;;;;;;2.75;2.50;;;;;16.86;60.54;101986.91;4923565;28;45204;-79
2021/08/28 00:38:48;;;;;;;;;3.75;2.00;;;;;16.83;60.54;101984.38;4923455;28;45175;-79
2021/08/28 00:41:13;;;;;;;;;3.25;2.75;;;;;16.79;61.15;101982.75;4923354;28;46583;-79
2021/08/28 00:43:39;;;;;;;;;4.00;3.25;;;;;16.76;60.92;101989.06;4923164;28;45236;-76
2021/08/28 00:46:04;;;;;;;;;3.75;2.75;;;;;16.75;61.30;101992.66;4923670;28;45500;-77
2021/08/28 00:48:29;;;;;;;;;1.75;1.75;;;;;16.71;61.63;101990.16;4923593;28;45443;-77
2021/08/28 00:50:55;;;;;;;;;4.25;3.00;;;;;16.66;61.95;101987.69;4923961;28;45585;-85
2021/08/28 00:53:20;;;;;;;;;1.00;1.00;;;;;16.62;61.75;101983.41;4923413;28;45284;-87
2021/08/28 00:55:47;;;;;;;;;2.00;1.00;;;;;16.61;61.71;101985.22;4923618;28;45296;-87
2021/08/28 00:58:13;;;;;;;;;2.00;2.00;;;;;16.60;62.22;101991.44;4906033;28;47208;-82
2021/08/28 01:00:48;;;;;;;;;2.00;2.00;;;;;16.58;62.39;101988.00;4923597;28;46470;-84
2021/08/28 01:03:19;;;;;;;;;2.50;1.75;;;;;16.58;62.27;101988.00;4904770;28;46294;-84
2021/08/28 01:05:58;;;;;;;;;3.50;1.25;;;;;16.56;62.97;101991.63;4923391;28;45626;-84
2021/08/28 01:08:42;;;;;;;;;3.00;3.00;;;;;16.55;62.23;101990.75;4923056;28;45340;-84
2021/08/28 01:11:15;;;;;;;;;2.75;1.00;;;;;16.57;62.49;101983.59;4923071;28;45555;-84
2021/08/28 01:13:43;;;;;;;;;3.00;2.25;;;;;16.58;63.10;101995.09;4904686;29;45385;-85
2021/08/28 01:16:10;;;;;;;;;4.00;3.00;;;;;16.56;62.70;101975.69;4904666;28;45485;-85
2021/08/28 01:18:39;;;;;;;;;4.00;3.00;;;;;16.53;62.41;101972.25;4906285;28;46305;-84
2021/08/28 01:21:26;;;;;;;;;3.00;3.00;;;;;16.55;62.54;101974.84;4922830;28;45336;-84
2021/08/28 01:23:53;;;;;;;;;2.00;1.25;;;;;16.50;62.93;101972.34;4905599;28;46053;-83
2021/08/28 01:26:22;;;;;;;;;2.50;2.50;;;;;16.49;63.14;101983.03;4923334;28;45409;-84
2021/08/28 01:28:55;;;;;;;;;2.00;2.00;;;;;16.42;63.10;101974.47;4923150;28;45434;-84
2021/08/28 01:31:21;;;;;;;;;1.25;1.25;;;;;16.39;62.88;101979.88;4923339;28;45248;-83
2021/08/28 01:33:48;;;;;;;;;4.00;4.00;;;;;16.36;63.25;101975.56;4922368;28;45212;-82
2021/08/28 01:36:14;;;;;;;;;3.00;3.00;;;;;16.34;63.61;101976.53;4923356;28;45233;-83
2021/08/28 01:38:42;;;;;;;;;2.00;2.00;;;;;16.30;63.44;101981.06;4922438;28;45470;-83
2021/08/28 01:41:07;;;;;;;;;3.25;2.00;;;;;16.27;63.59;101973.25;4905536;28;47985;-84
2021/08/28 01:43:33;;;;;;;;;3.50;3.50;;;;;16.27;64.00;101981.22;4922334;28;45365;-84
2021/08/28 01:45:59;;;;;;;;;4.00;3.00;;;;;16.25;63.94;101978.59;4921963;28;45342;-83
2021/08/28 01:48:25;;;;;;;;;2.00;2.00;;;;;16.23;64.04;101966.31;4922882;28;45506;-83
2021/08/28 01:50:52;;;;;;;;;5.00;2.75;;;;;16.27;63.96;101971.44;4928061;28;45299;-82
2021/08/28 01:53:19;;;;;;;;;2.50;2.50;;;;;16.26;64.20;101975.03;4921989;28;45227;-83
2021/08/28 01:55:44;;;;;;;;;2.00;2.00;;;;;16.23;64.40;101971.59;4922289;28;45244;-84
2021/08/28 01:58:12;;;;;;;;;4.25;2.50;;;;;16.20;64.38;101975.25;4922414;28;45217;-76
2021/08/28 02:00:38;;;;;;;;;6.75;5.50;;;;;16.16;64.55;101969.19;4922375;28;46467;-77
2021/08/28 02:03:03;;;;;;;;;4.00;3.00;;;;;16.14;64.26;101983.44;4922799;28;45327;-86
2021/08/28 02:05:32;;;;;;;;;4.75;4.00;;;;;16.09;65.02;101973.00;4905002;28;45386;-85
2021/08/28 02:08:04;;;;;;;;;6.50;6.25;;;;;16.07;65.59;101978.38;4905217;28;45272;-80
2021/08/28 02:10:51;;;;;;;;;5.00;4.00;;;;;16.02;65.13;101980.28;4904924;28;47027;-81
2021/08/28 02:13:31;;;;;;;;;5.00;3.25;;;;;15.98;65.63;101981.31;4905304;28;45237;-81
2021/08/28 02:16:04;;;;;;;;;5.00;3.00;;;;;16.01;65.46;101982.97;4904317;28;45396;-79
2021/08/28 02:18:48;;;;;;;;;4.75;4.25;;;;;16.01;66.05;101988.28;4904501;28;46434;-82
2021/08/28 02:21:15;;;;;;;;;5.75;3.50;;;;;15.97;65.58;101991.06;4905108;28;48399;-81
2021/08/28 02:23:50;;;;;;;;;3.00;2.25;;;;;15.97;65.37;101990.19;4904650;28;45499;-82
2021/08/28 02:26:19;;;;;;;;;3.75;2.50;;;;;15.97;65.63;101992.84;4904839;28;45352;-83
2021/08/28 02:29:00;;;;;;;;;5.00;4.50;;;;;15.94;65.77;101991.16;4921956;28;45456;-79
2021/08/28 02:31:30;;;;;;;;;4.00;3.00;;;;;15.94;66.08;101991.16;4922247;28;45436;-81
2021/08/28 02:33:56;;;;;;;;;6.75;4.00;;;;;15.91;65.85;101993.94;4921791;28;45161;-81
2021/08/28 02:36:22;;;;;;;;;3.75;3.75;;;;;15.92;66.12;101986.84;4921983;28;45469;-81
2021/08/28 02:38:49;;;;;;;;;9.25;5.00;;;;;15.93;65.86;101991.22;4921608;28;45421;-81
2021/08/28 02:41:17;;;;;;;;;6.00;4.00;;;;;15.90;65.99;101986.03;4909872;28;46385;-76
2021/08/28 02:43:45;;;;;;;;;3.50;3.50;;;;;15.92;66.18;101994.78;4921618;28;45710;-77
2021/08/28 02:46:11;;;;;;;;;3.00;3.00;;;;;15.88;66.30;101996.69;4922371;28;45232;-77
2021/08/28 02:48:38;;;;;;;;;2.50;2.50;;;;;15.84;66.19;101997.72;4921840;28;45164;-85
2021/08/28 02:51:07;;;;;;;;;3.00;3.00;;;;;15.85;66.33;101991.50;4908982;28;48692;-85
2021/08/28 02:53:34;;;;;;;;;4.50;2.50;;;;;15.80;65.88;101989.03;4921143;28;45585;-85
2021/08/28 02:56:01;;;;;;;;;3.50;3.25;;;;;15.80;66.48;101982.84;4921479;28;45212;-82
2021/08/28 02:58:27;;;;;;;;;2.25;2.25;;;;;15.81;66.52;101984.56;4924537;28;45286;-81
2021/08/28 03:00:55;;;;;;;;;7.75;3.50;;;;;15.80;66.72;101978.41;4924881;28;45585;-84
2021/08/28 03:03:21;;;;;;;;;4.00;3.00;;;;;15.77;66.64;101980.28;4925114;28;45362;-86
2021/08/28 03:05:49;;;;;;;;;4.25;3.00;;;;;15.78;66.98;101984.69;4925280;28;45502;-85
2021/08/28 03:08:17;;;;;;;;;4.00;3.75;;;;;15.79;66.80;101983.75;4924970;28;45349;-80
2021/08/28 03:10:51;;;;;;;;;5.75;2.50;;;;;15.74;66.80;101984.78;4907717;28;47313;-83
2021/08/28 03:13:18;;;;;;;;;3.00;3.00;;;;;15.74;66.58;101981.25;4907857;28;45525;-87
2021/08/28 03:15:45;;;;;;;;;4.25;3.50;;;;;15.74;66.58;101976.84;4924913;28;45312;-85
2021/08/28 03:18:12;;;;;;;;;3.25;2.00;;;;;15.76;66.61;101979.44;4907923;28;46233;-84
2021/08/28 03:20:40;;;;;;;;;4.25;2.75;;;;;15.77;66.64;101967.91;4924951;28;45464;-84
2021/08/28 03:23:07;;;;;;;;;4.00;3.50;;;;;15.77;66.75;101975.00;4924508;28;45643;-83
2021/08/28 03:25:34;;;;;;;;;3.50;3.00;;;;;15.74;66.85;101978.63;4925422;28;45236;-84
2021/08/28 03:28:00;;;;;;;;;5.75;2.00;;;;;15.74;66.85;101976.84;4924836;28;45406;-86
2021/08/28 03:30:27;;;;;;;;;4.00;3.00;;;;;15.72;66.74;101981.34;4924777;28;45759;-85
2021/08/28 03:32:54;;;;;;;;;3.75;2.25;;;;;15.70;67.06;101983.19;4924529;28;45248;-80
2021/08/28 03:35:19;;;;;;;;;6.00;4.00;;;;;15.68;67.13;101978.84;4907780;28;45317;-81
2021/08/28 03:37:45;;;;;;;;;6.25;3.00;;;;;15.66;66.78;101978.88;4924598;28;45472;-80
2021/08/28 03:40:11;;;;;;;;;2.75;2.75;;;;;15.62;67.17;101980.78;4924625;28;45545;-88
2021/08/28 03:42:38;;;;;;;;;5.75;4.50;;;;;15.63;67.29;101984.31;4906580;28;45946;-85
2021/08/28 03:45:05;;;;;;;;;3.00;3.00;;;;;15.64;67.22;101978.94;4907420;28;45259;-86
2021/08/28 03:47:32;;;;;;;;;3.00;2.25;;;;;15.63;67.63;101973.72;4924278;28;45709;-87
2021/08/28 03:49:57;;;;;;;;;2.25;2.00;;;;;15.60;67.45;101972.03;4927260;28;48371;-86
2021/08/28 03:52:23;;;;;;;;;4.50;4.50;;;;;15.62;67.51;101974.63;4924518;28;45338;-87
2021/08/28 03:54:48;;;;;;;;;3.75;2.75;;;;;15.60;67.64;101971.16;4924831;28;45321;-86
2021/08/28 03:57:13;;;;;;;;;5.75;2.00;;;;;15.58;67.95;101975.66;4906564;28;47089;-88
2021/08/28 03:59:39;;;;;;;;;3.50;3.00;;;;;15.57;67.74;101976.56;4924346;28;45322;-84
2021/08/28 04:02:04;;;;;;;;;3.50;2.50;;;;;15.55;68.34;101967.78;4924513;28;45366;-84
2021/08/28 04:04:29;;;;;;;;;3.00;2.75;;;;;15.52;68.07;101968.75;4907338;28;45422;-84
2021/08/28 04:06:55;;;;;;;;;4.00;2.00;;;;;15.49;68.06;101972.38;4924263;28;45480;-83
2021/08/28 04:09:20;;;;;;;;;5.25;5.00;;;;;15.47;68.58;101968.06;4923570;28;46518;-83
2021/08/28 04:11:45;;;;;;;;;3.00;1.50;;;;;15.47;68.31;101968.94;4924249;28;45212;-83
2021/08/28 04:14:11;;;;;;;;;5.75;2.75;;;;;15.47;68.30;101966.28;4906637;28;45260;-84
2021/08/28 04:16:36;;;;;;;;;3.00;2.00;;;;;15.48;67.96;101970.63;4906417;28;47058;-83
2021/08/28 04:19:02;;;;;;;;;2.75;1.00;;;;;15.50;68.35;101974.13;4905990;28;47923;-83
2021/08/28 04:21:27;;;;;;;;;7.50;4.00;;;;;15.45;68.24;101968.13;4923826;28;45322;-79
2021/08/28 04:23:53;;;;;;;;;3.00;3.00;;;;;15.39;68.40;101958.59;4907057;28;45226;-81
2021/08/28 04:26:18;;;;;;;;;2.25;1.75;;;;;15.39;68.34;101966.53;4923952;28;45176;-80
2021/08/28 04:28:43;;;;;;;;;2.00;2.00;;;;;15.41;68.40;101972.63;4923707;28;46403;-81
2021/08/28 04:31:09;;;;;;;;;3.00;1.75;;;;;15.43;68.38;101974.38;4924032;28;45307;-81
2021/08/28 04:33:34;;;;;;;;;3.75;1.50;;;;;15.46;68.73;101979.59;4923912;28;45463;-81
2021/08/28 04:36:00;;;;;;;;;5.25;3.50;;;;;15.41;68.63;101969.13;4923563;28;45225;-79
2021/08/28 04:38:25;;;;;;;;;3.75;3.50;;;;;15.44;68.53;101973.44;4923211;28;45473;-79
2021/08/28 04:40:53;;;;;;;;;3.00;2.50;;;;;15.46;69.17;101979.59;4923683;28;45335;-79
2021/08/28 04:43:19;;;;;;;;;4.25;3.00;;;;;15.47;69.28;101983.94;4923696;28;45515;-79
2021/08/28 04:45:44;;;;;;;;;2.00;2.00;;;;;15.47;69.32;101982.16;4923327;28;45365;-83
2021/08/28 04:48:09;;;;;;;;;3.25;3.25;;;;;15.47;68.81;101973.34;4923281;28;45450;-81
2021/08/28 04:50:35;;;;;;;;;2.25;2.00;;;;;15.48;68.93;101975.09;4928447;28;45424;-80
2021/08/28 04:53:00;;;;;;;;;4.50;3.00;;;;;15.53;69.17;101975.81;4906345;28;45185;-80
2021/08/28 04:55:25;;;;;;;;;6.00;3.00;;;;;15.55;68.87;101978.41;4923467;28;45592;-81
2021/08/28 04:57:51;;;;;;;;;2.75;2.50;;;;;15.61;68.66;101972.88;4923287;28;46437;-81
2021/08/28 05:00:16;;;;;;;;;2.25;2.25;;;;;15.62;68.32;101971.97;4923134;28;45205;-81
2021/08/28 05:02:42;;;;;;;;;4.25;3.25;;;;;15.70;68.29;101979.66;4923249;28;45176;-81
2021/08/28 05:05:08;;;;;;;;;8.75;3.25;;;;;15.67;68.23;101983.28;4923381;28;45556;-80
2021/08/28 05:07:33;;;;;;;;;4.00;3.00;;;;;15.68;68.01;101978.84;4923070;28;45397;-80
2021/08/28 05:09:59;;;;;;;;;3.75;3.25;;;;;15.65;67.77;101977.16;4923063;28;45294;-81
2021/08/28 05:12:24;;;;;;;;;3.00;2.00;;;;;15.69;68.08;101986.72;4923456;28;45305;-80
2021/08/28 05:14:50;;;;;;;;;4.00;2.50;;;;;15.67;68.10;101993.00;4923270;28;45169;-80
2021/08/28 05:17:15;;;;;;;;;3.25;3.00;;;;;15.65;67.89;101990.41;4923228;28;46339;-80
2021/08/28 05:19:41;;;;;;;;;6.00;5.00;;;;;15.64;68.24;101991.31;4921751;28;45462;-80
2021/08/28 05:22:06;;;;;;;;;8.50;4.25;;;;;15.61;68.23;101988.78;4922244;28;45341;-79
2021/08/28 05:24:34;;;;;;;;;2.75;1.75;;;;;15.66;68.04;101992.13;4922795;28;45473;-78
2021/08/28 05:27:01;;;;;;;;;4.75;4.00;;;;;15.71;68.23;102000.78;4905666;28;48293;-78
2021/08/28 05:29:26;;;;;;;;;3.25;3.00;;;;;15.71;68.73;101990.19;4922896;28;45224;-76
2021/08/28 05:31:51;;;;;;;;;7.00;4.00;;;;;15.77;68.27;101982.94;4923251;28;45200;-80
2021/08/28 05:34:17;;;;;;;;;4.50;3.00;;;;;15.79;68.25;101994.34;4923091;28;45249;-80
2021/08/28 05:36:42;;;;;;;;;3.00;2.25;;;;;15.76;68.34;101997.97;4922575;28;46460;-80
2021/08/28 05:39:08;;;;;;;;;4.00;2.00;;;;;15.77;68.63;101990.91;4922387;28;45188;-80
2021/08/28 05:41:36;;;;;;;;;4.00;3.00;;;;;15.81;68.52;101996.03;4905506;28;45254;-81
2021/08/28 05:44:01;;;;;;;;;5.00;3.75;;;;;15.77;68.57;101983.81;4905588;28;46103;-81
2021/08/28 05:46:27;;;;;;;;;5.50;5.00;;;;;15.78;68.42;101984.69;4922744;28;46342;-81
2021/08/28 05:48:52;;;;;;;;;3.75;2.00;;;;;15.83;68.18;101995.97;4922655;28;45303;-81
2021/08/28 05:51:19;;;;;;;;;3.25;3.00;;;;;15.80;68.45;101983.72;4934402;28;45802;-81
2021/08/28 05:53:45;;;;;;;;;3.25;3.25;;;;;15.90;68.37;101988.69;4904749;28;46308;-80
2021/08/28 05:56:10;;;;;;;;;6.25;4.00;;;;;15.91;68.13;101985.09;4904128;28;46372;-81
2021/08/28 05:58:36;;;;;;;;;4.50;4.50;;;;;15.98;68.24;101998.09;4922350;28;45190;-80
2021/08/28 06:01:01;;;;;;;;;6.50;4.00;;;;;16.01;68.44;101990.94;4922786;28;45386;-80
2021/08/28 06:03:27;;;;;;;;;3.75;3.75;;;;;16.03;68.07;101983.78;4922271;28;45394;-80
2021/08/28 06:05:52;;;;;;;;;4.25;3.50;;;;;16.04;68.12;101990.84;4922570;28;46180;-80
2021/08/28 06:08:17;;;;;;;;;4.25;3.50;;;;;16.05;68.16;101993.44;4922026;28;45381;-81
2021/08/28 06:10:43;;;;;;;;;1.75;1.00;;;;;16.05;68.29;101988.16;4922751;28;45272;-79
2021/08/28 06:13:08;;;;;;;;;3.00;2.00;;;;;16.08;68.42;101995.13;4922261;28;45317;-80
2021/08/28 06:15:34;;;;;;;;;6.25;4.75;;;;;16.05;68.67;101990.81;4921969;28;45322;-81
2021/08/28 06:17:59;;;;;;;;;3.50;3.00;;;;;16.07;68.53;101996.94;4922438;28;45211;-77
2021/08/28 06:20:25;;;;;;;;;6.25;5.00;;;;;16.07;68.55;101996.06;4922567;28;46408;-77
2021/08/28 06:22:50;;;;;;;;;4.75;1.00;;;;;16.08;68.65;102006.59;4912148;28;45474;-77
2021/08/28 06:25:15;;;;;;;;;4.00;3.50;;;;;16.10;68.78;102011.84;4902819;28;47016;-77
2021/08/28 06:27:41;;;;;;;;;3.50;3.50;;;;;16.07;69.06;102004.91;4922182;28;45355;-76
2021/08/28 06:30:06;;;;;;;;;3.75;3.75;;;;;16.11;68.75;102010.94;4905179;28;45446;-76
2021/08/28 06:32:32;;;;;;;;;4.75;3.00;;;;;16.11;68.97;102005.63;4909989;28;45381;-75
2021/08/28 06:34:57;;;;;;;;;2.50;2.50;;;;;16.14;68.77;102012.63;4921694;28;46158;-75
2021/08/28 06:37:22;;;;;;;;;5.25;5.25;;;;;16.14;68.75;102013.47;4921819;28;45319;-75
2021/08/28 06:39:48;;;;;;;;;9.00;7.00;;;;;16.14;69.10;102018.78;4921705;28;45469;-82
2021/08/28 06:42:14;;;;;;;;;6.00;4.50;;;;;16.17;69.07;102018.66;4921527;28;45366;-80
2021/08/28 06:44:40;;;;;;;;;8.75;6.25;;;;;16.19;68.78;102016.84;4921918;28;45345;-79
2021/08/28 06:47:06;;;;;;;;;5.25;4.00;;;;;16.20;68.77;102013.25;4922119;28;45535;-80
2021/08/28 06:49:32;;;;;;;;;5.00;4.50;;;;;16.23;69.09;102019.34;4921572;28;45164;-83
2021/08/28 06:51:57;;;;;;;;;6.00;6.00;;;;;16.26;68.90;102021.91;4921981;28;45268;-83
2021/08/28 06:54:23;;;;;;;;;6.75;4.00;;;;;16.30;68.83;102019.09;4903664;28;47374;-80
2021/08/28 06:56:48;;;;;;;;;6.00;4.00;;;;;16.37;68.72;102014.41;4921913;28;45243;-83
2021/08/28 06:59:14;;;;;;;;;6.50;3.00;;;;;16.40;68.55;102011.66;4921857;28;45369;-80
2021/08/28 07:01:40;;;;;;;;;6.25;5.00;;;;;16.49;68.76;102018.41;4921948;28;45553;-83
2021/08/28 07:04:05;;;;;;;;;3.00;3.00;;;;;16.47;68.30;102008.78;4904620;28;47410;-81
2021/08/28 07:06:32;;;;;;;;;6.00;4.50;;;;;16.52;68.27;102026.25;4919417;28;45462;-87
2021/08/28 07:08:57;;;;;;;;;4.00;3.75;;;;;16.53;68.11;102013.84;4921446;28;45478;-78
2021/08/28 07:11:23;;;;;;;;;5.50;3.00;;;;;16.57;68.08;102019.91;4921511;28;45414;-78
2021/08/28 07:13:48;;;;;;;;;6.25;5.25;;;;;16.61;68.45;102029.47;4921910;28;45299;-78
2021/08/28 07:16:13;;;;;;;;;4.25;3.25;;;;;16.61;68.47;102025.03;4922110;28;45296;-78
2021/08/28 07:18:39;;;;;;;;;7.50;5.75;;;;;16.65;68.21;102028.44;4934090;28;45387;-78
2021/08/28 07:21:04;;;;;;;;;4.25;4.00;;;;;16.63;68.67;102020.53;4904331;28;45791;-78
2021/08/28 07:23:29;;;;;;;;;9.50;7.25;;;;;16.70;68.41;102020.28;4921264;28;45315;-78
2021/08/28 07:25:54;;;;;;;;;4.75;4.25;;;;;16.73;68.17;102014.88;4921367;28;45462;-78
2021/08/28 07:28:22;;;;;;;;;9.75;5.50;;;;;16.76;68.45;102012.97;4921572;28;45304;-78
2021/08/28 07:30:47;;;;;;;;;6.25;5.75;;;;;16.87;68.49;102017.84;4909000;28;45241;-78
2021/08/28 07:33:13;;;;;;;;;7.75;7.75;;;;;16.96;68.35;102016.59;4921606;28;46573;-78
2021/08/28 07:35:38;;;;;;;;;9.75;9.75;;;;;17.07;68.03;102017.97;4921281;28;45482;-78
2021/08/28 07:38:03;;;;;;;;;8.75;7.75;;;;;17.12;67.92;102015.13;4920929;28;45455;-78
2021/08/28 07:40:29;;;;;;;;;10.50;5.25;;;;;17.16;67.79;102022.09;4921089;28;45524;-78
2021/08/28 07:42:56;;;;;;;;;9.00;7.00;;;;;17.16;67.50;102030.91;4921459;28;45394;-77
2021/08/28 07:45:22;;;;;;;;;9.50;8.25;;;;;17.20;67.68;102029.88;4924066;28;45332;-77
2021/08/28 07:47:48;;;;;;;;;9.25;7.00;;;;;17.19;67.41;102032.56;4907698;28;45435;-78
2021/08/28 07:50:14;;;;;;;;;9.50;7.75;;;;;17.13;67.25;102017.72;4921956;28;45346;-79
2021/08/28 07:52:40;;;;;;;;;9.25;8.75;;;;;17.24;67.48;102024.41;4929337;28;45391;-77
2021/08/28 07:55:07;;;;;;;;;8.00;7.25;;;;;17.32;67.40;102014.34;4924363;28;45256;-78
2021/08/28 07:57:32;;;;;;;;;6.00;5.25;;;;;17.39;67.17;102022.91;4924630;28;45237;-78
2021/08/28 07:59:57;;;;;;;;;10.75;7.00;;;;;17.47;66.52;102018.16;4924252;28;45274;-78
2021/08/28 08:02:23;;;;;;;;;6.25;5.00;;;;;17.52;66.53;102023.28;4924136;28;45636;-78
2021/08/28 08:04:48;;;;;;;;;9.50;7.25;;;;;17.54;66.17;102024.94;4907220;28;45555;-78
2021/08/28 08:07:14;;;;;;;;;4.50;4.50;;;;;17.57;66.34;102015.97;4924095;28;45232;-77
2021/08/28 08:09:39;;;;;;;;;5.00;5.00;;;;;17.61;66.31;102022.00;4907160;28;46166;-77
2021/08/28 08:12:04;;;;;;;;;8.00;6.75;;;;;17.62;66.20;102018.44;4923910;28;45157;-77
2021/08/28 08:14:30;;;;;;;;;10.75;6.50;;;;;17.62;65.81;102024.63;4907073;28;45252;-77
2021/08/28 08:16:55;;;;;;;;;10.50;9.25;;;;;17.63;66.00;102021.03;4906634;28;45575;-77
2021/08/28 08:19:20;;;;;;;;;8.00;6.75;;;;;17.66;66.38;102031.53;4923836;28;47082;-77
2021/08/28 08:21:46;;;;;;;;;4.00;4.00;;;;;17.64;65.73;102022.75;4906495;28;48021;-78
2021/08/28 08:24:11;;;;;;;;;5.75;5.00;;;;;17.63;66.19;102020.19;4916062;28;45887;-78
2021/08/28 08:26:36;;;;;;;;;5.00;4.25;;;;;17.69;65.85;102021.69;4920462;28;45503;-77
2021/08/28 08:29:02;;;;;;;;;7.75;5.00;;;;;17.75;65.94;102019.63;4922364;28;45400;-78
2021/08/28 08:31:27;;;;;;;;;5.25;5.25;;;;;17.79;65.34;102019.50;4903930;28;47425;-78
2021/08/28 08:33:53;;;;;;;;;6.00;4.25;;;;;17.83;65.61;102010.47;4922006;28;45588;-78
2021/08/28 08:36:18;;;;;;;;;4.75;4.75;;;;;17.88;66.33;102012.00;4922704;28;45323;-78
2021/08/28 08:38:44;;;;;;;;;6.25;5.75;;;;;17.94;66.33;102012.66;4922120;28;45454;-78
2021/08/28 08:41:10;;;;;;;;;9.50;5.25;;;;;18.00;66.80;102005.25;4922964;28;45807;-82
2021/08/28 08:43:36;;;;;;;;;6.00;5.75;;;;;18.06;66.50;102005.91;4904946;28;45350;-78
2021/08/28 08:46:01;;;;;;;;;8.00;4.50;;;;;18.05;66.63;102009.53;4923178;28;45285;-78
2021/08/28 08:48:27;;;;;;;;;6.50;5.75;;;;;18.03;66.10;102016.69;4923973;28;45406;-78
2021/08/28 08:50:54;;;;;;;;;3.00;3.00;;;;;18.06;66.28;102022.75;4928748;28;46743;-78
2021/08/28 08:53:25;;;;;;;;;9.50;7.00;;;;;18.18;66.54;102025.78;4922840;28;45166;-77
2021/08/28 08:55:52;;;;;;;;;5.00;4.25;;;;;18.26;66.23;102022.81;4930377;28;45459;-77
2021/08/28 08:58:18;;;;;;;;;4.25;4.00;;;;;18.33;66.16;102035.78;4922963;28;45435;-77
2021/08/28 09:00:43;;;;;;;;;4.00;4.00;;;;;18.39;65.84;102024.00;4923234;28;45242;-78
2021/08/28 09:03:09;;;;;;;;;5.00;3.75;;;;;18.43;65.43;102024.69;4922780;28;45410;-77
2021/08/28 09:05:34;;;;;;;;;5.00;2.75;;;;;18.44;65.63;102037.09;4923678;28;45237;-77
2021/08/28 09:08:00;;;;;;;;;5.00;5.00;;;;;18.42;65.41;102033.63;4923064;28;45204;-78
2021/08/28 09:10:25;;;;;;;;;6.25;5.25;;;;;18.45;65.53;102044.13;4906008;28;47080;-77
2021/08/28 09:12:51;;;;;;;;;5.75;5.75;;;;;18.51;65.32;102035.88;4922915;28;45557;-78
2021/08/28 09:15:16;;;;;;;;;7.75;6.00;;;;;18.58;65.02;102031.13;4893034;28;45720;-78
2021/08/28 09:17:44;;;;;;;;;7.25;5.25;;;;;18.60;64.67;102031.03;4922607;28;45405;-78
2021/08/28 09:20:20;;;;;;;;;8.00;6.25;;;;;18.56;65.41;102033.00;4923007;28;46520;-78
2021/08/28 09:22:46;;;;;;;;;4.00;4.00;;;;;18.59;65.42;102030.19;4904977;28;45318;-77
2021/08/28 09:25:13;;;;;;;;;7.75;7.00;;;;;18.66;65.25;102036.97;4923115;28;45273;-77
2021/08/28 09:27:38;;;;;;;;;5.50;5.00;;;;;18.74;65.10;102033.91;4904978;28;46363;-77
2021/08/28 09:30:35;;;;;;;;;6.75;5.00;;;;;18.83;64.32;102034.41;4934945;28;45483;-77
2021/08/28 09:33:03;;;;;;;;;6.50;4.25;;;;;18.86;63.81;102040.47;4913762;28;45279;-77
2021/08/28 09:35:38;;;;;;;;;5.25;4.75;;;;;18.89;64.08;102040.31;4922944;28;45300;-77
2021/08/28 09:38:05;;;;;;;;;6.00;6.00;;;;;18.95;64.27;102040.97;4922445;28;45327;-77
2021/08/28 09:40:34;;;;;;;;;4.75;4.50;;;;;18.99;63.58;102042.53;4922185;28;46458;-75
2021/08/28 09:43:08;;;;;;;;;4.25;4.25;;;;;18.98;63.61;102046.16;4893002;29;45508;-77
2021/08/28 09:45:35;;;;;;;;;4.25;4.25;;;;;18.98;63.52;102039.03;4921610;28;45407;-82
2021/08/28 09:48:00;;;;;;;;;5.00;4.00;;;;;19.06;63.45;102046.63;4923053;28;45212;-86
2021/08/28 09:50:28;;;;;;;;;4.25;3.75;;;;;19.17;63.07;102051.47;4927146;28;45526;-84
2021/08/28 09:52:54;;;;;;;;;4.00;3.75;;;;;19.21;62.72;102033.53;4922698;28;45545;-87
2021/08/28 09:55:21;;;;;;;;;7.50;4.25;;;;;19.25;62.74;102035.09;4922699;28;45277;-82
2021/08/28 09:57:51;;;;;;;;;4.25;4.25;;;;;19.29;62.98;102027.81;4922186;28;45474;-83
2021/08/28 10:00:17;;;;;;;;;4.00;4.00;;;;;19.34;63.00;102026.66;4921930;28;45415;-77
2021/08/28 10:02:59;;;;;;;;;8.25;4.00;;;;;19.47;62.58;102030.50;4905079;28;45357;-86
2021/08/28 10:05:27;;;;;;;;;4.00;4.00;;;;;19.53;61.73;102039.03;4922279;28;45247;-88
2021/08/28 10:07:57;;;;;;;;;5.50;5.50;;;;;19.52;61.69;102032.00;4921860;28;45497;-89
2021/08/28 10:10:23;;;;;;;;;3.50;3.00;;;;;19.55;61.70;102037.19;4921955;28;45485;-86
2021/08/28 10:12:49;;;;;;;;;5.50;5.50;;;;;19.53;61.73;102027.53;4922336;28;45555;-85
2021/08/28 10:15:15;;;;;;;;;5.00;4.25;;;;;19.64;61.49;102037.63;4922118;28;45295;-82
2021/08/28 10:17:41;;;;;;;;;6.75;5.00;;;;;19.68;61.43;102029.41;4922550;28;45467;-76
2021/08/28 10:20:07;;;;;;;;;6.25;6.00;;;;;19.76;61.44;102034.34;4921688;28;45366;-77
2021/08/28 10:22:35;;;;;;;;;4.25;4.00;;;;;19.83;60.72;102034.03;4921638;28;45506;-77
2021/08/28 10:25:05;;;;;;;;;7.00;5.25;;;;;19.86;60.80;102031.19;4905191;28;45439;-77
2021/08/28 10:27:31;;;;;;;;;4.00;4.00;;;;;19.90;60.46;102038.94;4904954;28;46319;-77
2021/08/28 10:29:57;;;;;;;;;7.00;6.25;;;;;19.94;60.07;102028.13;4922038;28;45558;-77
2021/08/28 10:32:23;;;;;;;;;4.75;4.00;;;;;19.96;59.84;102021.78;4921563;28;45600;-77
2021/08/28 10:34:50;;;;;;;;;6.00;5.25;;;;;19.96;59.89;102020.91;4920780;28;45323;-77
2021/08/28 10:37:15;;;;;;;;;3.75;3.75;;;;;20.00;59.71;102027.81;4921374;28;45402;-77
2021/08/28 10:39:42;;;;;;;;;4.75;4.75;;;;;20.00;59.12;102023.31;4904603;28;47082;-77
2021/08/28 10:42:09;;;;;;;;;4.00;4.00;;;;;19.99;59.11;102024.28;4903958;28;45551;-77
2021/08/28 10:44:35;;;;;;;;;4.50;4.00;;;;;20.05;58.86;102022.25;4921884;28;45169;-77
2021/08/28 10:47:26;;;;;;;;;5.75;4.25;;;;;20.09;58.44;102016.66;4904367;28;45994;-76
2021/08/28 10:49:52;;;;;;;;;4.00;4.00;;;;;20.15;58.40;102025.31;4912051;28;45316;-77
2021/08/28 10:52:25;;;;;;;;;4.00;4.00;;;;;20.17;58.44;102024.28;4921496;28;45293;-77
2021/08/28 10:54:59;;;;;;;;;4.50;3.00;;;;;20.18;58.42;102015.31;4921487;28;45239;-77
2021/08/28 10:57:27;;;;;;;;;4.00;4.00;;;;;20.24;57.96;102017.66;4893243;28;47178;-77
2021/08/28 11:00:03;;;;;;;;;4.00;2.75;;;;;20.29;57.72;102017.41;4922023;28;46349;-77
2021/08/28 11:02:49;;;;;;;;;3.75;3.00;;;;;20.33;57.20;102008.28;4921722;28;45556;-76
2021/08/28 11:05:17;;;;;;;;;3.50;2.25;;;;;20.38;57.58;102002.69;4898720;28;45298;-77
2021/08/28 11:07:43;;;;;;;;;4.75;4.00;;;;;20.42;57.32;102012.25;4921097;28;46363;-77
2021/08/28 11:10:20;;;;;;;;;2.75;2.75;;;;;20.45;57.77;102001.41;4904515;28;48386;-76
2021/08/28 11:12:50;;;;;;;;;3.00;3.00;;;;;20.53;57.70;101998.31;4921160;28;45586;-76
2021/08/28 11:15:24;;;;;;;;;2.25;2.00;;;;;20.59;56.88;102005.13;4921287;28;45446;-76
2021/08/28 11:17:51;;;;;;;;;2.00;2.00;;;;;20.61;56.13;101999.69;4904494;28;47123;-77
2021/08/28 11:20:25;;;;;;;;;3.00;3.00;;;;;20.56;56.35;102005.28;4906398;28;48577;-77
2021/08/28 11:22:51;;;;;;;;;3.25;2.75;;;;;20.57;56.09;102007.00;4917486;28;45415;-76
2021/08/28 11:25:19;;;;;;;;;3.00;3.00;;;;;20.54;54.97;101999.19;4907839;28;45385;-77